Time;durP1;ratioP1;P1;durP2;ratioP2;P2;SDS_P1;SDS_P2;PMS_P1;PMS_P2;Temp;Humidity;BMP_temperature;BMP_pressure;BME280_temperature;BME280_humidity;BME280_pressure;Samples;Min_cycle;Max_cycle;Signal;HPM_P1;HPM_P2
2023/09/08 00:01:57;;;;;;;17.03;12.13;;;;;;;18.26;100.00;15631.06;6215091;23;20366;-76
2023/09/08 00:04:22;;;;;;;18.60;11.80;;;;;;;18.21;100.00;14240.34;6243249;23;20011;-76
2023/09/08 00:06:48;;;;;;;18.53;12.37;;;;;;;18.22;100.00;13198.72;6215121;23;20007;-76
2023/09/08 00:09:13;;;;;;;19.77;12.40;;;;;;;18.17;100.00;12850.34;6241103;23;20011;-76
2023/09/08 00:11:39;;;;;;;16.67;12.07;;;;;;;18.22;100.00;12851.53;6242081;23;20004;-76
2023/09/08 00:14:04;;;;;;;17.23;12.37;;;;;;;18.20;100.00;11462.75;6242162;23;20000;-76
2023/09/08 00:16:30;;;;;;;16.70;12.83;;;;;;;18.16;100.00;13197.25;6241928;23;20426;-76
2023/09/08 00:18:59;;;;;;;14.00;12.38;;;;;;;18.16;100.00;12850.09;6242161;23;20004;-75
2023/09/08 00:21:25;;;;;;;17.35;12.38;;;;;;;18.14;100.00;15280.41;6241983;23;20369;-76
2023/09/08 00:23:53;;;;;;;19.23;12.40;;;;;;;18.15;100.00;14933.22;6242134;23;20030;-76
2023/09/08 00:26:19;;;;;;;12.80;11.40;;;;;;;18.12;100.00;14585.13;6241751;23;19992;-75
2023/09/08 00:28:45;;;;;;;15.43;11.85;;;;;;;18.09;100.00;14584.31;6215199;23;20012;-76
2023/09/08 00:31:10;;;;;;;16.00;12.27;;;;;;;18.03;100.00;15971.84;6215547;23;20083;-76
2023/09/08 00:33:36;;;;;;;15.57;12.53;;;;;;;17.98;100.00;14928.69;6215366;23;20008;-76
2023/09/08 00:36:02;;;;;;;17.80;12.68;;;;;;;17.99;100.00;15276.09;6240916;23;20008;-76
2023/09/08 00:38:27;;;;;;;21.27;12.63;;;;;;;17.93;100.00;13885.75;6214829;23;20028;-75
2023/09/08 00:40:53;;;;;;;16.50;11.87;;;;;;;17.92;100.00;13538.41;6241960;23;20032;-76
2023/09/08 00:43:18;;;;;;;17.50;12.03;;;;;;;17.87;100.00;12149.25;6241719;23;20449;-75
2023/09/08 00:45:45;;;;;;;17.00;12.63;;;;;;;17.89;100.00;11802.78;6241438;23;20004;-76
2023/09/08 00:48:10;;;;;;;18.48;12.65;;;;;;;17.87;100.00;11108.75;6215772;23;20046;-76
2023/09/08 00:50:37;;;;;;;16.93;12.90;;;;;;;17.87;100.00;10761.94;6241868;23;20004;-76
2023/09/08 00:53:04;;;;;;;20.60;13.23;;;;;;;17.86;100.00;11802.13;6242656;23;20426;-76
2023/09/08 00:55:31;;;;;;;18.77;14.40;;;;;;;17.85;100.00;9028.00;6225807;23;20442;-76
2023/09/08 00:57:58;;;;;;;19.67;13.50;;;;;;;17.82;100.00;7987.69;6242777;22;20008;-73
2023/09/08 01:00:24;;;;;;;23.60;13.25;;;;;;;17.78;100.00;8680.09;6241770;22;20004;-74
2023/09/08 01:02:49;;;;;;;22.67;13.40;;;;;;;17.74;100.00;10412.44;6242845;22;20007;-74
2023/09/08 01:05:15;;;;;;;21.73;13.10;;;;;;;17.72;100.00;11105.56;6242477;22;20338;-73
2023/09/08 01:17:53;;;;;;;17.77;14.27;;;;;;;17.63;100.00;9370.50;6239321;22;20009;-73
2023/09/08 01:20:29;;;;;;;17.63;13.90;;;;;;;17.61;100.00;9716.69;6239812;22;20058;-74
2023/09/08 01:23:13;;;;;;;22.40;13.10;;;;;;;17.58;100.00;9369.59;6239332;22;20019;-73
2023/09/08 01:26:04;;;;;;;21.80;13.93;;;;;;;17.57;100.00;8330.13;6241099;22;20440;-75
2023/09/08 01:28:32;;;;;;;24.42;13.20;;;;;;;17.51;100.00;8329.13;6242208;22;20395;-73
2023/09/08 01:30:58;;;;;;;16.50;13.60;;;;;;;17.52;100.00;7636.53;6242042;22;20000;-74
2023/09/08 01:33:24;;;;;;;18.13;13.50;;;;;;;17.45;100.00;7981.72;6243881;22;20342;-74
2023/09/08 01:35:50;;;;;;;19.27;13.57;;;;;;;17.48;100.00;8674.91;6242095;23;19996;-74
2023/09/08 01:38:16;;;;;;;20.42;13.57;;;;;;;17.43;100.00;8327.81;6243857;22;20479;-74
2023/09/08 01:40:41;;;;;;;17.92;13.93;;;;;;;17.44;100.00;9020.59;6243706;22;20040;-74
2023/09/08 01:43:06;;;;;;;22.77;13.33;;;;;;;17.42;100.00;9366.75;6243300;22;20015;-73
2023/09/08 01:45:32;;;;;;;19.93;13.37;;;;;;;17.40;100.00;9019.97;6243259;23;20000;-73
2023/09/08 01:47:57;;;;;;;15.90;13.47;;;;;;;17.42;100.00;7634.97;6241821;23;20381;-73
2023/09/08 01:50:24;;;;;;;17.73;13.20;;;;;;;17.39;100.00;6942.16;6242368;23;20011;-73
2023/09/08 01:52:50;;;;;;;21.17;12.90;;;;;;;17.35;100.00;7287.69;6242261;22;20004;-74
2023/09/08 01:55:16;;;;;;;21.80;14.70;;;;;;;17.34;100.00;7633.72;6243846;22;20015;-73
2023/09/08 01:57:42;;;;;;;20.85;13.48;;;;;;;17.30;100.00;6594.66;6216432;23;20001;-74
2023/09/08 02:00:09;;;;;;;17.02;12.93;;;;;;;17.35;100.00;4865.16;6243873;23;20003;-74
2023/09/08 02:02:34;;;;;;;22.55;13.30;;;;;;;17.32;100.00;4518.91;6243381;23;20389;-74
2023/09/08 02:04:59;;;;;;;17.57;12.20;;;;;;;17.29;100.00;4518.53;6242531;23;20087;-73
2023/09/08 02:07:25;;;;;;;17.73;12.83;;;;;;;17.28;100.00;5902.28;6217148;23;20070;-73
2023/09/08 02:09:50;;;;;;;15.00;13.33;;;;;;;17.31;100.00;4864.66;6243092;23;20397;-74
2023/09/08 02:12:15;;;;;;;20.23;13.07;;;;;;;17.29;100.00;5556.38;6243848;23;20073;-74
2023/09/08 02:14:41;;;;;;;19.13;13.40;;;;;;;17.30;100.00;4172.75;6242909;23;20426;-73
2023/09/08 02:17:06;;;;;;;21.10;14.27;;;;;;;17.27;100.00;3826.59;6243272;23;20419;-74
2023/09/08 02:19:31;;;;;;;15.67;14.13;;;;;;;17.27;100.00;3826.59;6217448;23;20272;-74
2023/09/08 02:21:57;;;;;;;18.87;14.30;;;;;;;17.27;100.00;3826.63;6243496;23;20008;-74
2023/09/08 02:24:22;;;;;;;17.73;13.87;;;;;;;17.23;100.00;4172.03;6242875;23;20012;-73
2023/09/08 02:26:48;;;;;;;14.07;12.57;;;;;;;17.22;100.00;4517.84;6243219;23;20434;-75
2023/09/08 02:29:13;;;;;;;18.03;13.23;;;;;;;17.26;100.00;2789.16;6215439;23;20004;-74
2023/09/08 02:31:38;;;;;;;23.90;14.37;;;;;;;17.21;100.00;1751.81;6243561;23;20484;-74
2023/09/08 02:34:04;;;;;;;16.70;13.70;;;;;;;17.19;100.00;2788.63;6216517;23;20706;-74
2023/09/08 02:36:29;;;;;;;17.57;13.23;;;;;;;17.17;100.00;3134.19;6243961;23;20691;-73
2023/09/08 02:38:56;;;;;;;18.20;13.23;;;;;;;17.12;100.00;5208.44;6242815;23;20478;-73
2023/09/08 02:41:22;;;;;;;16.40;12.88;;;;;;;17.17;100.00;5555.00;6242625;23;20057;-74
2023/09/08 02:43:47;;;;;;;16.52;12.55;;;;;;;17.12;100.00;5900.25;6242825;23;20038;-74
2023/09/08 02:46:13;;;;;;;16.33;14.30;;;;;;;17.10;100.00;5208.19;6215211;23;20008;-74
2023/09/08 02:48:39;;;;;;;16.97;13.03;;;;;;;17.14;100.00;3479.63;6243140;23;20011;-74
2023/09/08 02:51:04;;;;;;;19.73;14.10;;;;;;;17.11;100.00;1751.19;6243234;23;20008;-74
2023/09/08 02:53:30;;;;;;;20.40;13.33;;;;;;;17.08;100.00;1059.97;6243270;23;20103;-74
2023/09/08 02:55:56;;;;;;;16.87;12.77;;;;;;;17.09;100.00;23.72;6243017;23;20016;-73
2023/09/08 02:58:22;;;;;;;14.18;12.77;;;;;;;17.01;100.00;1059.66;6243622;23;20028;-73
2023/09/08 03:00:47;;;;;;;15.80;12.83;;;;;;;17.05;100.00;1059.84;6242783;23;20405;-73
2023/09/08 03:03:12;;;;;;;14.93;13.07;;;;;;;17.04;100.00;1405.25;6244277;23;20009;-73
2023/09/08 03:05:38;;;;;;;18.40;13.27;;;;;;;16.97;100.00;2786.97;6216531;23;20055;-73
2023/09/08 03:08:05;;;;;;;16.47;13.27;;;;;;;16.98;100.00;4169.56;6243214;23;20000;-74
2023/09/08 03:10:33;;;;;;;;;;;;;;;17.01;100.00;2787.28;6243546;23;20008;-74
2023/09/08 03:12:59;;;;;;;14.20;12.73;;;;;;;16.99;100.00;3132.69;6243502;23;19945;-73
2023/09/08 03:15:27;;;;;;;14.20;12.20;;;;;;;16.97;100.00;4169.47;6242621;23;20011;-73
2023/09/08 03:17:58;;;;;;;15.32;13.05;;;;;;;16.98;100.00;4861.03;6243451;23;20343;-73
2023/09/08 03:20:24;;;;;;;18.08;13.18;;;;;;;16.96;100.00;3132.44;6243690;23;20018;-73
2023/09/08 03:22:49;;;;;;;15.75;12.15;;;;;;;16.94;100.00;3132.31;6243752;23;20000;-74
2023/09/08 03:25:15;;;;;;;18.70;12.27;;;;;;;16.93;100.00;3477.84;6242454;23;20054;-74
2023/09/08 03:27:40;;;;;;;15.80;12.43;;;;;;;16.90;100.00;3131.94;6242526;23;20007;-74
2023/09/08 03:30:07;;;;;;;18.70;13.23;;;;;;;16.87;100.00;2786.19;6242340;23;20078;-75
2023/09/08 03:32:33;;;;;;;17.70;13.15;;;;;;;16.85;100.00;3131.53;6243032;23;20004;-74
2023/09/08 03:34:58;;;;;;;16.65;12.23;;;;;;;16.82;100.00;3131.28;6242911;23;20008;-74
2023/09/08 03:37:26;;;;;;;17.67;12.70;;;;;;;16.82;100.00;3822.38;6243560;23;20056;-73
2023/09/08 03:39:51;;;;;;;17.83;12.60;;;;;;;16.80;100.00;3476.69;6241809;23;20398;-74
2023/09/08 03:42:17;;;;;;;14.57;12.32;;;;;;;16.81;100.00;2094.81;6243051;23;20004;-73
2023/09/08 03:44:42;;;;;;;17.13;13.13;;;;;;;16.82;100.00;1749.47;6242238;23;20050;-74
2023/09/08 03:47:07;;;;;;;16.30;12.47;;;;;;;16.77;100.00;1749.16;6241685;23;20007;-74
2023/09/08 03:49:33;;;;;;;14.10;11.87;;;;;;;16.75;100.00;713.09;6241727;23;20402;-74
2023/09/08 03:51:58;;;;;;;18.20;12.77;;;;;;;16.76;100.00;1403.75;6242229;23;20449;-74
2023/09/08 03:54:24;;;;;;;19.70;12.43;;;;;;;16.74;100.00;1403.66;6214864;23;20322;-74
2023/09/08 03:56:49;;;;;;;15.10;12.57;;;;;;;16.72;100.00;1058.25;6241618;23;20316;-74
2023/09/08 03:59:14;;;;;;;18.07;12.03;;;;;;;16.71;100.00;712.94;6242284;23;20008;-74
2023/09/08 04:01:40;;;;;;;16.37;12.53;;;;;;;16.72;100.00;22.53;6242503;23;20426;-74
2023/09/08 04:04:05;;;;;;;18.10;12.97;;;;;;;16.72;100.00;-1012.88;6215722;23;20338;-74
2023/09/08 04:06:30;;;;;;;23.40;13.33;;;;;;;16.69;100.00;-1357.97;6242967;23;19996;-74
2023/09/08 04:08:56;;;;;;;20.90;14.23;;;;;;;16.64;100.00;22.28;6242291;23;20000;-74
2023/09/08 04:11:21;;;;;;;15.20;13.00;;;;;;;16.63;100.00;-322.88;6215887;23;20128;-73
2023/09/08 04:13:46;;;;;;;14.53;12.07;;;;;;;16.62;100.00;22.25;6242407;23;20008;-74
2023/09/08 04:16:12;;;;;;;13.57;11.93;;;;;;;16.59;100.00;1057.59;6240741;23;20026;-73
2023/09/08 04:18:37;;;;;;;21.13;12.77;;;;;;;16.59;100.00;1402.84;6243117;23;20004;-74
2023/09/08 04:21:02;;;;;;;20.33;12.23;;;;;;;16.60;100.00;22.16;6215381;23;20004;-73
2023/09/08 04:23:28;;;;;;;13.93;11.60;;;;;;;16.54;100.00;1402.56;6215534;23;20058;-73
2023/09/08 04:25:53;;;;;;;20.37;12.27;;;;;;;16.54;100.00;712.22;6241275;23;19996;-73
2023/09/08 04:28:18;;;;;;;14.03;11.93;;;;;;;16.54;100.00;22.00;6215772;23;20448;-73
2023/09/08 04:30:44;;;;;;;18.77;11.97;;;;;;;16.55;100.00;367.13;6214103;23;20003;-73
2023/09/08 04:33:09;;;;;;;15.93;11.43;;;;;;;16.51;100.00;1057.25;6216222;23;20007;-73
2023/09/08 04:35:34;;;;;;;19.80;13.07;;;;;;;16.53;100.00;1057.34;6215145;23;20010;-73
2023/09/08 04:38:00;;;;;;;17.27;12.47;;;;;;;16.53;100.00;-323.13;6242663;23;20000;-72
2023/09/08 04:40:25;;;;;;;19.77;12.87;;;;;;;16.48;100.00;366.84;6215459;23;20434;-73
2023/09/08 04:42:51;;;;;;;17.03;12.47;;;;;;;16.48;100.00;711.97;6241647;23;20004;-73
2023/09/08 04:45:16;;;;;;;17.90;11.83;;;;;;;16.45;100.00;-323.34;6241470;23;20373;-72
2023/09/08 04:47:41;;;;;;;15.53;12.03;;;;;;;16.43;100.00;366.66;6242673;23;20028;-73
2023/09/08 04:50:07;;;;;;;18.17;12.63;;;;;;;16.44;100.00;-323.34;6242609;23;20028;-73
2023/09/08 04:52:33;;;;;;;20.60;12.32;;;;;;;16.41;100.00;-1358.25;6215699;23;20465;-73
2023/09/08 04:54:58;;;;;;;21.47;12.40;;;;;;;16.39;100.00;-1703.13;6242183;23;20012;-73
2023/09/08 04:57:23;;;;;;;18.50;11.17;;;;;;;16.39;100.00;-2047.94;6242621;23;20012;-72
2023/09/08 04:59:49;;;;;;;23.27;11.70;;;;;;;16.34;100.00;-668.53;6241903;23;20008;-73
2023/09/08 06:34:26;;;;;;;22.23;15.07;;;;;;;18.19;100.00;6607.00;6239889;22;20038;-72
2023/09/08 06:36:52;;;;;;;23.80;16.07;;;;;;;18.35;100.00;8690.00;6241555;23;20699;-73
2023/09/08 06:39:17;;;;;;;26.17;14.97;;;;;;;18.45;100.00;11815.28;6240616;23;20449;-72
2023/09/08 06:41:42;;;;;;;27.93;17.03;;;;;;;18.54;100.00;14596.53;6241989;23;20077;-73
2023/09/08 06:44:08;;;;;;;22.50;16.03;;;;;;;18.71;100.00;16687.31;6241898;23;20011;-72
2023/09/08 06:46:33;;;;;;;20.97;16.07;;;;;;;18.86;100.00;20520.41;6214082;23;20012;-73
2023/09/08 06:48:59;;;;;;;28.97;16.40;;;;;;;18.99;100.00;25404.16;6241326;23;20008;-74
2023/09/08 06:51:24;;;;;;;26.27;16.27;;;;;;;19.11;100.00;28899.25;6241927;23;20032;-73
2023/09/08 06:53:57;;;;;;;22.63;15.73;;;;;;;19.28;100.00;29606.03;6214479;23;20011;-73
2023/09/08 06:56:22;;;;;;;22.13;16.92;;;;;;;19.41;100.00;34506.84;6214361;23;20027;-73
2023/09/08 06:58:48;;;;;;;20.20;15.40;;;;;;;19.50;100.00;40463.50;6241588;23;20109;-73
2023/09/08 07:01:13;;;;;;;19.17;15.13;;;;;;;19.58;100.00;43624.31;6213385;23;20083;-74
2023/09/08 07:03:39;;;;;;;20.83;14.97;;;;;;;19.78;100.00;47499.91;6212257;23;20397;-74
2023/09/08 07:06:04;;;;;;;23.40;15.00;;;;;;;20.14;100.00;53506.00;6242154;23;20448;-75
2023/09/08 07:08:30;;;;;;;23.47;15.73;;;;;;;20.25;100.00;61266.34;6242535;23;20015;-74
2023/09/08 07:10:55;;;;;;;25.60;16.87;;;;;;;20.61;100.00;66952.91;6242530;23;20008;-74
2023/09/08 07:13:20;;;;;;;21.23;14.63;;;;;;;21.23;100.00;84392.44;6240448;23;20000;-75
2023/09/08 07:15:46;;;;;;;25.43;15.50;;;;;;;21.62;100.00;109406.59;6214717;23;20209;-75
2023/09/08 07:18:11;;;;;;;18.97;14.23;;;;;;;22.11;100.00;127793.84;6241682;23;20061;-75
2023/09/08 07:20:36;;;;;;;34.07;15.70;;;;;;;22.47;100.00;156555.69;6241575;23;20016;-74
2023/09/08 07:23:02;;;;;;;19.80;14.10;;;;;;;22.89;100.00;157223.06;6242328;23;20027;-75
2023/09/08 07:25:27;;;;;;;25.83;14.57;;;;;;;23.09;100.00;157275.34;6241881;23;20058;-74
2023/09/08 07:27:53;;;;;;;23.73;13.87;;;;;;;23.15;100.00;157289.75;6240343;23;20362;-74
2023/09/08 07:30:19;;;;;;;22.20;15.10;;;;;;;23.22;100.00;157308.09;6241311;23;20030;-74
2023/09/08 07:32:45;;;;;;;24.52;15.07;;;;;;;23.36;100.00;157344.72;6217499;23;20472;-74
2023/09/08 07:35:14;;;;;;;23.63;15.23;;;;;;;23.29;100.00;157326.38;6240809;23;20043;-74
2023/09/08 07:37:43;;;;;;;19.55;15.75;;;;;;;23.09;100.00;157274.03;6212228;23;20338;-74
2023/09/08 07:40:11;;;;;;;20.00;14.25;;;;;;;23.03;100.00;157258.34;6241675;23;20078;-75
2023/09/08 08:10:53;;;;;;;24.75;15.60;;;;;;;22.94;100.00;139869.56;6220368;22;20032;-73
2023/09/08 08:13:19;;;;;;;19.27;14.70;;;;;;;23.01;100.00;149758.66;6241833;23;20004;-73
2023/09/08 08:15:47;;;;;;;16.77;14.00;;;;;;;23.05;100.00;132678.03;6240858;23;20007;-73
2023/09/08 08:18:12;;;;;;;17.17;14.25;;;;;;;23.20;100.00;148441.38;6241601;23;19996;-73
2023/09/08 08:20:38;;;;;;;20.10;16.70;;;;;;;23.30;100.00;157329.00;6240887;23;20003;-73
2023/09/08 08:23:05;;;;;;;23.63;14.63;;;;;;;23.36;100.00;157344.72;6241257;23;20426;-73
2023/09/08 08:25:31;;;;;;;16.67;14.90;;;;;;;23.42;100.00;157361.69;6240872;23;20004;-73
2023/09/08 08:27:58;;;;;;;23.38;15.10;;;;;;;23.52;100.00;157386.56;6213794;23;20426;-73
2023/09/08 08:30:24;;;;;;;21.73;15.25;;;;;;;23.61;100.00;157411.38;6241959;23;20341;-74
2023/09/08 08:32:51;;;;;;;21.73;15.20;;;;;;;23.84;100.00;157470.25;6241805;23;20064;-74
2023/09/08 08:35:17;;;;;;;24.98;15.88;;;;;;;23.90;100.00;157487.25;6242665;23;20422;-74
2023/09/08 08:37:42;;;;;;;19.02;14.57;;;;;;;24.00;100.00;157513.44;6214421;23;20159;-73
2023/09/08 08:40:11;;;;;;;21.40;14.47;;;;;;;24.05;100.00;157526.50;6241444;23;20004;-73
2023/09/08 08:42:36;;;;;;;18.67;13.10;;;;;;;24.23;100.00;157572.31;6244560;23;20136;-73
2023/09/08 08:45:03;;;;;;;20.90;14.33;;;;;;;24.37;100.00;157608.91;6243721;23;20450;-73
2023/09/08 08:47:29;;;;;;;23.58;13.23;;;;;;;24.51;100.00;157646.88;6244296;23;20425;-73
2023/09/08 08:49:58;;;;;;;28.10;13.05;;;;;;;24.63;100.00;157677.00;6216912;23;20052;-73
2023/09/08 08:52:24;;;;;;;15.27;11.93;;;;;;;24.73;100.00;157703.16;6244194;23;20004;-73
2023/09/08 08:54:49;;;;;;;21.38;13.60;;;;;;;24.82;100.00;157728.03;6243290;23;20003;-73
2023/09/08 08:57:15;;;;;;;17.17;12.00;;;;;;;24.98;100.00;157769.91;6244056;23;20054;-73
2023/09/08 08:59:44;;;;;;;16.37;11.80;;;;;;;25.21;100.00;157828.81;6244195;23;20330;-73
2023/09/08 09:02:11;;;;;;;18.80;11.52;;;;;;;25.29;100.00;157849.84;6217540;23;20087;-73
2023/09/08 09:04:38;;;;;;;18.90;11.23;;;;;;;25.48;100.00;157900.88;6243836;23;20434;-74
2023/09/08 09:07:06;;;;;;;19.75;13.57;;;;;;;25.56;100.00;157920.53;6242270;23;20441;-73
2023/09/08 09:09:31;;;;;;;17.90;12.00;;;;;;;25.72;100.00;157963.72;6243613;23;20488;-73
2023/09/08 09:11:57;;;;;;;23.65;12.73;;;;;;;25.79;100.00;157982.09;6243796;23;20003;-73
2023/09/08 09:14:23;;;;;;;19.83;11.02;;;;;;;26.02;100.00;158041.03;6216516;23;20008;-74
2023/09/08 09:16:49;;;;;;;18.05;11.30;;;;;;;26.05;100.00;158048.91;6242881;23;20078;-74
2023/09/08 09:27:01;;;;;;;21.77;11.10;;;;;;;26.58;100.00;158189.13;6217638;22;20020;-71
2023/09/08 09:29:27;;;;;;;18.95;10.70;;;;;;;26.88;100.00;158267.75;6243305;23;20004;-73
2023/09/08 09:31:55;;;;;;;22.13;10.10;;;;;;;26.95;100.00;158284.81;6216153;23;20095;-72
2023/09/08 09:34:24;;;;;;;22.33;11.52;;;;;;;27.06;100.00;158314.91;6216661;23;20008;-73
2023/09/08 09:39:26;;;;;;;16.13;11.73;;;;;;;27.26;100.00;158366.13;6220424;22;20059;-70
2023/09/08 09:41:58;;;;;;;16.48;10.43;;;;;;;27.48;100.00;158425.09;6216628;23;20088;-73
2023/09/08 09:44:24;;;;;;;21.02;10.48;;;;;;;27.62;100.00;158460.50;6244617;23;20016;-74
2023/09/08 09:46:51;;;;;;;;;;;;;;;27.82;100.00;158514.34;6244534;23;20003;-73
2023/09/08 09:49:20;;;;;;;;;;;;;;;27.94;100.00;158544.47;6217175;23;20345;-72
2023/09/08 09:51:47;;;;;;;14.30;11.30;;;;;;;27.87;100.00;158527.47;6243823;23;19903;-74
2023/09/08 09:54:14;;;;;;;26.27;11.27;;;;;;;28.09;100.00;158585.16;6243883;23;20510;-74
2023/09/08 09:56:41;;;;;;;21.17;11.02;;;;;;;28.15;100.00;158600.91;6243452;23;20004;-75
2023/09/08 10:01:42;;;;;;;23.02;11.57;;;;;;;28.34;100.00;158650.72;6212781;22;20086;-75
2023/09/08 10:04:08;;;;;;;21.30;11.23;;;;;;;28.48;100.00;158687.50;6216968;23;20083;-74
2023/09/08 10:06:35;;;;;;;21.63;11.70;;;;;;;28.44;100.00;158677.00;6244119;23;20171;-74
2023/09/08 10:14:13;;;;;;;22.35;13.75;;;;;;;28.65;100.00;158732.13;6210618;22;20074;-73
2023/09/08 10:16:41;;;;;;;19.40;13.27;;;;;;;28.79;100.00;158767.53;6217180;23;20016;-73
2023/09/08 10:19:09;;;;;;;21.35;11.93;;;;;;;29.05;100.00;158837.16;6243716;23;20081;-73
2023/09/08 10:21:41;;;;;;;19.73;12.82;;;;;;;29.20;100.00;158876.56;6216085;23;20449;-73
2023/09/08 10:24:15;;;;;;;19.98;12.38;;;;;;;29.04;100.00;158834.56;6243614;23;20034;-73
2023/09/08 10:26:43;;;;;;;20.80;11.77;;;;;;;29.16;100.00;158864.72;6216573;23;20334;-74
2023/09/08 10:29:10;;;;;;;20.15;11.55;;;;;;;29.29;100.00;158898.88;6244034;23;20488;-77
2023/09/08 10:31:36;;;;;;;16.02;11.27;;;;;;;29.34;100.00;158912.00;6217083;23;20000;-77
2023/09/08 10:34:03;;;;;;;22.25;13.85;;;;;;;29.42;100.00;158934.31;6242764;23;20083;-76
2023/09/08 10:36:29;;;;;;;18.10;12.13;;;;;;;29.47;100.00;158947.44;6243227;23;20205;-76
2023/09/08 10:39:14;;;;;;;17.67;11.05;;;;;;;29.42;100.00;158932.97;6243522;23;20342;-75
2023/09/08 10:41:40;;;;;;;23.63;13.80;;;;;;;29.37;100.00;158921.19;6215471;23;20000;-75
2023/09/08 10:44:09;;;;;;;24.65;12.05;;;;;;;29.42;100.00;158932.97;6216763;23;20031;-75
2023/09/08 10:46:36;;;;;;;18.52;11.27;;;;;;;29.63;100.00;158988.16;6243916;23;20077;-76
2023/09/08 10:49:06;;;;;;;18.45;10.38;;;;;;;29.74;100.00;159018.38;6243137;23;20078;-75
2023/09/08 10:51:33;;;;;;;12.90;8.80;;;;;;;30.04;100.00;159097.13;6243291;23;20452;-76
2023/09/08 10:53:58;;;;;;;17.83;9.73;;;;;;;30.09;100.00;159109.00;6242726;23;20699;-75
2023/09/08 10:56:46;;;;;;;18.25;9.13;;;;;;;30.11;100.00;159114.28;6242093;23;20004;-75
2023/09/08 10:59:11;;;;;;;14.82;8.20;;;;;;;30.09;100.00;159110.28;6215487;23;20008;-75
2023/09/08 11:01:37;;;;;;;15.55;6.28;;;;;;;30.01;100.00;159089.28;6243318;23;20449;-75
2023/09/08 11:04:08;;;;;;;10.85;6.78;;;;;;;30.17;100.00;159130.03;6241115;23;20039;-76
2023/09/08 11:06:33;;;;;;;9.45;6.22;;;;;;;30.21;100.00;159140.56;6242483;23;19992;-76
2023/09/08 11:09:06;;;;;;;12.13;6.47;;;;;;;30.27;100.00;159156.31;6243062;23;20023;-75
2023/09/08 11:11:33;;;;;;;17.92;7.72;;;;;;;30.44;100.00;159202.28;6215525;23;20032;-75
2023/09/08 11:13:59;;;;;;;8.07;6.32;;;;;;;30.41;100.00;159194.38;6221643;23;20024;-74
2023/09/08 11:16:29;;;;;;;18.25;7.03;;;;;;;30.62;100.00;159248.28;6242379;22;20004;-75
2023/09/08 11:18:54;;;;;;;13.57;6.13;;;;;;;30.51;100.00;159219.38;6242151;22;20496;-75
2023/09/08 11:21:20;;;;;;;11.13;6.63;;;;;;;30.33;100.00;159172.06;6242937;22;20004;-75
2023/09/08 11:23:46;;;;;;;14.20;5.97;;;;;;;30.51;100.00;159219.38;6241219;23;20039;-74
2023/09/08 11:26:12;;;;;;;11.38;6.47;;;;;;;30.58;100.00;159237.75;6242218;22;19999;-74
2023/09/08 11:28:37;;;;;;;;;;;;;;;30.74;100.00;159279.84;6241433;23;20008;-74
2023/09/08 11:31:03;;;;;;;14.55;5.68;;;;;;;30.80;100.00;159295.63;6240993;23;20340;-75
2023/09/08 11:33:32;;;;;;;;;;;;;;;30.96;100.00;159337.66;6241813;23;20460;-75
2023/09/08 11:35:58;;;;;;;8.65;5.80;;;;;;;30.99;100.00;159345.56;6240116;22;19903;-74
2023/09/08 11:38:27;;;;;;;;;;;;;;;30.90;100.00;159323.19;6240583;22;20079;-73
2023/09/08 11:40:54;;;;;;;13.13;5.88;;;;;;;30.95;100.00;159336.31;6240312;22;19930;-73
2023/09/08 11:43:19;;;;;;;9.85;5.55;;;;;;;31.02;100.00;159354.75;6240874;22;20391;-72
2023/09/08 11:45:45;;;;;;;;;;;;;;;31.14;100.00;159384.94;6238822;23;20023;-73
2023/09/08 11:48:10;;;;;;;11.35;5.70;;;;;;;31.25;100.00;159415.25;6240394;22;19907;-73
2023/09/08 11:50:36;;;;;;;;;;;;;;;31.19;100.00;159399.47;6238722;23;20011;-73
2023/09/08 11:53:02;;;;;;;20.30;5.65;;;;;;;31.34;100.00;159437.59;6242726;23;19987;-72
2023/09/08 11:55:28;;;;;;;8.80;4.95;;;;;;;31.37;100.00;159445.50;6242811;23;20004;-73
2023/09/08 11:57:57;;;;;;;;;;;;;;;31.48;100.00;159475.69;6241401;23;20008;-73
2023/09/08 12:00:23;;;;;;;9.15;5.70;;;;;;;31.55;100.00;159492.78;6242799;22;19985;-73
2023/09/08 12:02:49;;;;;;;8.68;5.47;;;;;;;31.58;100.00;159500.69;6242341;22;20385;-72
2023/09/08 12:05:23;;;;;;;7.80;5.18;;;;;;;31.61;100.00;159509.91;6242788;22;20007;-73
2023/09/08 12:07:53;;;;;;;8.80;4.40;;;;;;;31.75;100.00;159546.72;6242610;22;20011;-73
2023/09/08 12:10:19;;;;;;;10.90;5.00;;;;;;;31.75;100.00;159545.44;6242850;22;20007;-72
2023/09/08 12:12:45;;;;;;;;;;;;;;;31.76;100.00;159549.41;6242505;22;20079;-73
2023/09/08 12:15:11;;;;;;;10.32;6.10;;;;;;;31.66;100.00;159523.03;6242466;22;19912;-73
2023/09/08 12:17:49;;;;;;;;;;;;;;;31.79;100.00;159557.25;6242671;23;20008;-73
2023/09/08 12:20:16;;;;;;;20.30;7.70;;;;;;;31.75;100.00;159546.72;6242728;23;20034;-72
2023/09/08 12:22:51;;;;;;;14.40;5.97;;;;;;;31.82;100.00;159563.84;6242373;23;20023;-73
2023/09/08 12:25:16;;;;;;;11.43;5.82;;;;;;;31.79;100.00;159555.97;6242405;23;20087;-72
2023/09/08 12:27:42;;;;;;;;;;;;;;;31.92;100.00;159591.47;6243215;23;20057;-74
2023/09/08 12:30:09;;;;;;;13.68;7.40;;;;;;;31.94;100.00;159596.72;6215674;23;20383;-72
2023/09/08 12:32:36;;;;;;;14.05;6.65;;;;;;;32.04;100.00;159621.69;6242356;23;20054;-73
2023/09/08 12:35:03;;;;;;;10.40;7.05;;;;;;;32.07;100.00;159629.59;6214666;23;20028;-73
2023/09/08 12:37:29;;;;;;;16.27;7.60;;;;;;;32.22;100.00;159670.34;6242768;23;20103;-73
2023/09/08 12:39:56;;;;;;;11.68;7.03;;;;;;;32.22;100.00;159670.34;6242251;23;20000;-72
2023/09/08 12:42:25;;;;;;;17.60;7.85;;;;;;;32.38;100.00;159712.47;6242466;23;20369;-73
2023/09/08 12:44:51;;;;;;;17.70;6.72;;;;;;;32.42;100.00;159721.66;6241540;23;20337;-73
2023/09/08 12:47:16;;;;;;;;;;;;;;;32.40;100.00;159716.44;6215770;23;20004;-72
2023/09/08 12:49:41;;;;;;;13.70;7.17;;;;;;;32.58;100.00;159765.09;6242560;23;19930;-74
2023/09/08 12:52:06;;;;;;;;;;;;;;;32.44;100.00;159726.97;6215683;23;20237;-74
2023/09/08 12:54:32;;;;;;;14.83;7.47;;;;;;;32.58;100.00;159765.09;6241758;23;19907;-74
2023/09/08 12:56:57;;;;;;;;;;;;;;;32.53;100.00;159750.59;6242308;23;20242;-74
2023/09/08 12:59:22;;;;;;;7.10;6.40;;;;;;;32.36;100.00;159707.22;6215123;23;19939;-75
2023/09/08 13:01:48;;;;;;;;;;;;;;;32.47;100.00;159736.16;6242073;23;20244;-74
2023/09/08 13:04:13;;;;;;;11.10;6.45;;;;;;;32.53;100.00;159750.59;6241443;23;19903;-74
2023/09/08 13:06:38;;;;;;;16.17;6.80;;;;;;;32.36;100.00;159707.22;6240757;23;20090;-74
2023/09/08 13:09:04;;;;;;;17.52;5.85;;;;;;;32.48;100.00;159737.50;6214786;23;20434;-74
2023/09/08 13:11:29;;;;;;;;;;;;;;;32.60;100.00;159769.06;6242903;23;20311;-74
2023/09/08 13:13:55;;;;;;;13.27;7.05;;;;;;;32.57;100.00;159761.13;6220267;23;20259;-74
2023/09/08 13:16:20;;;;;;;10.88;6.15;;;;;;;32.58;100.00;159763.75;6242115;22;20058;-74
2023/09/08 13:18:46;;;;;;;11.20;5.45;;;;;;;32.63;100.00;159778.25;6241209;23;20079;-74
2023/09/08 13:21:11;;;;;;;8.10;4.18;;;;;;;32.49;100.00;159740.13;6241511;22;20008;-74
2023/09/08 13:23:37;;;;;;;9.18;4.30;;;;;;;32.60;100.00;159769.06;6241101;22;20075;-74
2023/09/08 13:26:02;;;;;;;;;;;;;;;32.66;100.00;159786.13;6237880;23;20682;-74
2023/09/08 13:28:27;;;;;;;11.23;3.90;;;;;;;32.51;100.00;159745.38;6242067;23;19911;-74
2023/09/08 13:30:53;;;;;;;13.90;4.03;;;;;;;32.72;100.00;159800.63;6242395;22;20324;-74
2023/09/08 13:33:18;;;;;;;8.30;3.45;;;;;;;32.65;100.00;159782.22;6243707;22;20329;-74
2023/09/08 13:35:43;;;;;;;6.60;3.20;;;;;;;32.64;100.00;159779.59;6244111;22;20006;-74
2023/09/08 13:38:09;;;;;;;10.85;4.03;;;;;;;32.72;100.00;159800.63;6243518;23;20091;-74
2023/09/08 13:40:34;;;;;;;11.70;3.90;;;;;;;32.59;100.00;159767.72;6243733;22;20004;-74
2023/09/08 13:43:00;;;;;;;8.35;3.47;;;;;;;32.56;100.00;159758.53;6243684;22;20138;-74